Time;durP1;ratioP1;P1;durP2;ratioP2;P2;SDS_P1;SDS_P2;PMS_P1;PMS_P2;Temp;Humidity;BMP_temperature;BMP_pressure;BME280_temperature;BME280_humidity;BME280_pressure;Samples;Min_cycle;Max_cycle;Signal;HPM_P1;HPM_P2
2022/12/12 05:02:07;;;;;;;3.25;3.10;;;-0.90;99.90;;;;;;5277751;23;20224;-67
2022/12/12 05:04:41;;;;;;;12.80;6.45;;;-0.90;99.90;;;;;;4986527;28;20203;-66
2022/12/12 05:07:13;;;;;;;0.98;0.95;;;-0.90;99.90;;;;;;4988870;28;20236;-67
2022/12/12 05:09:40;;;;;;;13.30;4.28;;;-1.00;99.90;;;;;;4989711;28;20232;-67
2022/12/12 05:12:07;;;;;;;6.47;3.70;;;-1.00;99.90;;;;;;4967489;28;20241;-66
2022/12/12 05:14:34;;;;;;;4.63;4.40;;;-1.00;99.90;;;;;;4970491;28;20202;-67
2022/12/12 05:17:08;;;;;;;4.68;4.32;;;-1.10;99.90;;;;;;4968193;28;20327;-66
2022/12/12 05:19:34;;;;;;;5.07;4.78;;;-1.10;99.90;;;;;;4966325;28;20217;-67
2022/12/12 05:22:01;;;;;;;4.47;4.18;;;-1.10;99.90;;;;;;4969419;28;20226;-67
2022/12/12 05:24:30;;;;;;;16.17;7.50;;;-1.10;99.90;;;;;;4969377;28;20614;-66
2022/12/12 05:26:56;;;;;;;4.40;4.05;;;-1.20;99.90;;;;;;4962741;28;20580;-66
2022/12/12 05:29:23;;;;;;;4.80;4.60;;;-1.20;99.90;;;;;;4968617;28;20296;-67
2022/12/12 05:31:50;;;;;;;1.67;1.58;;;-1.20;99.90;;;;;;4970165;28;20229;-66
2022/12/12 05:34:18;;;;;;;5.03;4.72;;;-1.20;99.90;;;;;;4969625;28;20211;-67
2022/12/12 05:36:46;;;;;;;4.82;4.25;;;-1.30;99.90;;;;;;4963106;28;20214;-67
2022/12/12 05:39:13;;;;;;;3.58;3.17;;;-1.30;99.90;;;;;;4967152;28;20381;-67
2022/12/12 05:41:40;;;;;;;5.28;4.80;;;-1.30;99.90;;;;;;4958913;28;20225;-67
2022/12/12 05:44:07;;;;;;;4.57;4.22;;;-1.30;99.90;;;;;;4960754;28;20242;-66
2022/12/12 05:46:33;;;;;;;3.30;2.40;;;-1.40;99.90;;;;;;4966721;28;20221;-66
2022/12/12 05:49:00;;;;;;;8.23;5.47;;;-1.40;99.90;;;;;;4965645;28;20210;-65
2022/12/12 05:51:28;;;;;;;3.78;3.45;;;-1.40;99.90;;;;;;4969867;28;20229;-66
2022/12/12 05:53:55;;;;;;;1.17;1.17;;;-1.50;99.90;;;;;;4969811;28;20202;-66
2022/12/12 05:56:21;;;;;;;2.95;2.78;;;-1.50;99.90;;;;;;4960757;28;21221;-65
2022/12/12 05:58:48;;;;;;;5.63;4.47;;;-1.50;99.90;;;;;;4969279;28;20213;-66
2022/12/12 06:01:15;;;;;;;3.90;1.80;;;-1.60;99.90;;;;;;4964081;28;20245;-66
2022/12/12 06:03:42;;;;;;;10.25;4.35;;;-1.60;99.90;;;;;;4973522;28;20326;-66
2022/12/12 06:06:08;;;;;;;2.92;2.53;;;-1.60;99.90;;;;;;4971066;28;20210;-66
2022/12/12 06:08:36;;;;;;;3.05;2.55;;;-1.60;99.90;;;;;;4973695;28;20207;-66
2022/12/12 06:11:05;;;;;;;2.35;2.35;;;-1.60;99.90;;;;;;4964974;28;20229;-68
2022/12/12 06:13:32;;;;;;;1.85;1.85;;;-1.60;99.90;;;;;;4972296;28;20671;-67
2022/12/12 06:15:58;;;;;;;1.38;1.27;;;-1.70;99.90;;;;;;4971723;28;20265;-68
2022/12/12 06:18:25;;;;;;;2.10;1.95;;;-1.70;99.90;;;;;;4964083;28;20557;-67
2022/12/12 06:21:00;;;;;;;3.35;3.15;;;-1.70;99.90;;;;;;4968360;28;20229;-66
2022/12/12 06:23:27;;;;;;;2.03;2.03;;;-1.80;99.90;;;;;;4972692;28;20225;-67
2022/12/12 06:25:55;;;;;;;5.60;3.92;;;-1.80;99.90;;;;;;4973129;28;20647;-69
2022/12/12 06:28:22;;;;;;;5.43;4.20;;;-1.80;99.90;;;;;;4963083;28;20229;-67
2022/12/12 06:30:48;;;;;;;10.02;8.63;;;-1.80;99.90;;;;;;4972597;28;20288;-66
2022/12/12 06:33:15;;;;;;;3.80;3.63;;;-1.90;99.90;;;;;;4966708;28;20198;-67
2022/12/12 06:35:42;;;;;;;11.00;5.38;;;-1.80;99.90;;;;;;4967197;28;20206;-65
2022/12/12 06:38:08;;;;;;;2.05;2.05;;;-1.90;99.90;;;;;;4964732;28;20219;-66
2022/12/12 06:40:35;;;;;;;5.60;5.20;;;-1.90;99.90;;;;;;4969251;28;20236;-67
2022/12/12 06:43:03;;;;;;;6.55;6.15;;;-1.90;99.90;;;;;;4962174;28;20230;-66
2022/12/12 06:45:30;;;;;;;4.10;3.72;;;-1.90;99.90;;;;;;4972111;28;20668;-66
2022/12/12 06:47:56;;;;;;;2.90;2.70;;;-2.00;99.90;;;;;;4972378;28;20676;-66
2022/12/12 06:50:23;;;;;;;2.33;2.22;;;-2.00;99.90;;;;;;4968366;28;20787;-66
2022/12/12 06:52:49;;;;;;;3.47;2.58;;;-2.00;99.90;;;;;;4969855;28;20212;-67
2022/12/12 06:55:16;;;;;;;9.50;4.55;;;-2.00;99.90;;;;;;4963323;28;20312;-67
2022/12/12 06:57:43;;;;;;;2.40;2.28;;;-2.00;99.90;;;;;;4969540;28;20213;-67
2022/12/12 07:00:12;;;;;;;3.20;2.08;;;-2.00;99.90;;;;;;4964223;28;20335;-67
2022/12/12 07:02:38;;;;;;;2.95;2.75;;;-2.00;99.90;;;;;;4965576;28;20597;-67
2022/12/12 07:05:06;;;;;;;5.25;4.75;;;-2.10;99.90;;;;;;4970229;28;20853;-66
2022/12/12 07:07:33;;;;;;;4.32;3.38;;;-2.10;99.90;;;;;;4970074;28;20284;-66
2022/12/12 07:10:00;;;;;;;2.08;1.88;;;-2.20;99.90;;;;;;4969963;28;20217;-67
2022/12/12 07:12:27;;;;;;;2.15;1.95;;;-2.10;99.90;;;;;;4963136;28;20280;-65
2022/12/12 07:14:53;;;;;;;5.40;3.42;;;-2.10;99.90;;;;;;4965848;28;20289;-65
2022/12/12 07:17:21;;;;;;;7.47;6.00;;;-2.20;99.90;;;;;;4972538;28;20268;-65
2022/12/12 07:19:48;;;;;;;6.10;1.83;;;-2.20;99.90;;;;;;4971695;28;20210;-66
2022/12/12 07:22:15;;;;;;;2.17;2.05;;;-2.20;99.90;;;;;;4971335;28;20236;-65
2022/12/12 07:24:41;;;;;;;6.00;3.80;;;-2.20;99.90;;;;;;4972226;28;20233;-65
2022/12/12 07:27:08;;;;;;;2.78;2.67;;;-2.30;99.90;;;;;;4971508;28;20216;-66
2022/12/12 07:29:35;;;;;;;3.60;2.88;;;-2.20;99.90;;;;;;4966733;28;20210;-66
2022/12/12 07:32:01;;;;;;;9.15;4.18;;;-2.20;99.90;;;;;;4965940;28;20711;-66
2022/12/12 07:34:30;;;;;;;6.85;4.88;;;-2.30;99.90;;;;;;4972212;28;20228;-66
2022/12/12 07:36:56;;;;;;;3.83;3.58;;;-2.30;99.90;;;;;;4971180;28;20237;-67
2022/12/12 07:39:23;;;;;;;2.13;2.13;;;-2.20;99.90;;;;;;4964541;28;20219;-66
2022/12/12 07:41:50;;;;;;;3.05;2.95;;;-2.20;99.90;;;;;;4969096;28;20580;-67
2022/12/12 07:44:17;;;;;;;2.95;2.80;;;-2.20;99.90;;;;;;4969142;28;20280;-66
2022/12/12 07:46:43;;;;;;;4.50;4.15;;;-2.20;99.90;;;;;;4970493;28;20210;-66
2022/12/12 07:49:10;;;;;;;3.40;3.13;;;-2.20;99.90;;;;;;4970631;28;20213;-66
2022/12/12 07:51:38;;;;;;;4.82;4.53;;;-2.20;99.90;;;;;;4963924;28;20261;-66
2022/12/12 07:54:05;;;;;;;7.68;5.00;;;-2.20;99.90;;;;;;4967357;28;20252;-67
2022/12/12 07:56:32;;;;;;;7.15;6.75;;;-2.20;99.90;;;;;;4971624;28;20226;-66
2022/12/12 07:58:58;;;;;;;2.28;2.28;;;-2.20;99.90;;;;;;4970545;28;20212;-64
2022/12/12 08:01:26;;;;;;;2.72;2.72;;;-2.30;99.90;;;;;;4970439;28;20243;-66
2022/12/12 08:03:54;;;;;;;9.38;8.45;;;-2.30;99.90;;;;;;4970398;28;20670;-66
2022/12/12 08:06:22;;;;;;;5.50;3.90;;;-2.30;99.90;;;;;;4970375;28;20241;-65
2022/12/12 08:08:51;;;;;;;4.18;3.88;;;-2.40;99.90;;;;;;4971192;28;20575;-64
2022/12/12 08:11:20;;;;;;;6.03;5.75;;;-2.30;99.90;;;;;;4968771;28;20230;-65
2022/12/12 08:13:47;;;;;;;3.92;2.33;;;-2.30;99.90;;;;;;4967824;28;20214;-65
2022/12/12 08:16:15;;;;;;;2.35;2.25;;;-2.30;99.90;;;;;;4969396;28;20279;-65
2022/12/12 08:18:42;;;;;;;4.65;3.75;;;-2.30;99.90;;;;;;4971059;28;20550;-65
2022/12/12 08:21:10;;;;;;;7.65;6.90;;;-2.20;99.90;;;;;;4969951;28;20256;-66
2022/12/12 08:23:37;;;;;;;10.05;3.75;;;-2.20;99.90;;;;;;4968818;28;20221;-65
2022/12/12 08:26:07;;;;;;;4.30;4.20;;;-2.20;99.90;;;;;;4960641;28;20205;-66
2022/12/12 08:28:35;;;;;;;16.33;5.10;;;-2.10;99.90;;;;;;4972930;28;20205;-65
2022/12/12 08:31:01;;;;;;;5.25;4.80;;;-2.10;99.90;;;;;;4965793;28;20230;-65
2022/12/12 08:33:28;;;;;;;3.55;3.33;;;-2.10;99.90;;;;;;4964199;28;20198;-65
2022/12/12 08:35:55;;;;;;;5.95;5.53;;;-2.00;99.90;;;;;;4965472;28;20553;-64
2022/12/12 08:38:21;;;;;;;2.83;2.72;;;-2.00;99.90;;;;;;4970336;28;20206;-64
2022/12/12 08:40:48;;;;;;;2.65;2.45;;;-2.00;99.90;;;;;;4962771;28;20663;-65
2022/12/12 08:43:16;;;;;;;1.80;1.70;;;-2.00;99.90;;;;;;4956129;28;20210;-64
2022/12/12 08:45:43;;;;;;;5.70;3.85;;;-1.90;99.90;;;;;;4971229;28;20206;-64
2022/12/12 08:48:11;;;;;;;1.52;1.52;;;-1.90;99.90;;;;;;4970185;28;20210;-64
2022/12/12 08:50:40;;;;;;;4.70;2.72;;;-1.90;99.90;;;;;;4965601;28;20226;-66
2022/12/12 08:53:06;;;;;;;6.97;5.72;;;-1.90;99.90;;;;;;4971745;28;20214;-65
2022/12/12 08:55:33;;;;;;;3.55;3.47;;;-1.90;99.90;;;;;;4970535;28;20225;-64
2022/12/12 08:57:59;;;;;;;15.18;6.18;;;-1.90;99.90;;;;;;4969820;28;20217;-64
2022/12/12 09:00:27;;;;;;;9.50;3.75;;;-1.90;99.90;;;;;;4968264;28;20227;-64
2022/12/12 09:02:54;;;;;;;3.92;3.72;;;-1.80;99.90;;;;;;4970328;28;20290;-64
2022/12/12 09:05:21;;;;;;;3.35;3.25;;;-1.80;99.90;;;;;;4977445;28;20224;-66
2022/12/12 09:07:48;;;;;;;4.30;3.97;;;-1.80;99.90;;;;;;4971892;28;20675;-65
2022/12/12 09:10:15;;;;;;;8.02;3.40;;;-1.80;99.90;;;;;;4970191;28;20205;-66
2022/12/12 09:12:41;;;;;;;3.30;3.10;;;-1.70;99.90;;;;;;4970005;28;20210;-66
2022/12/12 09:15:09;;;;;;;2.15;2.15;;;-1.70;99.90;;;;;;4963892;28;20237;-65
2022/12/12 09:17:37;;;;;;;5.70;5.20;;;-1.60;99.90;;;;;;4961960;28;20208;-65
2022/12/12 09:20:04;;;;;;;2.55;2.45;;;-1.60;99.90;;;;;;4967453;28;20304;-65
2022/12/12 09:22:31;;;;;;;8.00;4.30;;;-1.50;99.90;;;;;;4962610;28;20577;-66
2022/12/12 09:24:58;;;;;;;4.28;2.63;;;-1.50;99.90;;;;;;4970864;28;20223;-64
2022/12/12 09:27:24;;;;;;;3.80;3.70;;;-1.40;99.90;;;;;;4964460;28;20211;-66
2022/12/12 09:29:51;;;;;;;7.53;3.00;;;-1.40;99.90;;;;;;4963869;28;20611;-66
2022/12/12 09:32:18;;;;;;;12.73;5.70;;;-1.30;99.90;;;;;;4970465;28;20225;-64
2022/12/12 09:34:46;;;;;;;3.15;2.95;;;-1.30;99.90;;;;;;4969326;28;20233;-63
2022/12/12 09:37:13;;;;;;;4.43;4.10;;;-1.30;99.90;;;;;;4972660;28;20241;-65
2022/12/12 09:39:39;;;;;;;11.10;4.63;;;-1.20;99.90;;;;;;4970785;28;20209;-65
2022/12/12 09:42:11;;;;;;;7.18;6.03;;;-1.20;99.90;;;;;;4969197;28;20229;-64
2022/12/12 09:44:38;;;;;;;6.57;5.75;;;-1.10;99.90;;;;;;4965334;28;20242;-65
2022/12/12 09:47:12;;;;;;;5.85;3.92;;;-1.10;99.90;;;;;;4965670;28;20258;-64
2022/12/12 09:49:45;;;;;;;4.35;4.15;;;-1.00;99.90;;;;;;4973836;28;20574;-64
2022/12/12 09:52:16;;;;;;;5.50;3.55;;;-1.00;99.90;;;;;;4971996;28;20244;-64
2022/12/12 09:54:44;;;;;;;4.53;4.22;;;-0.90;99.90;;;;;;4969809;28;20206;-64
2022/12/12 09:57:23;;;;;;;4.32;3.72;;;-0.90;99.90;;;;;;4971393;28;20213;-64
2022/12/12 09:59:55;;;;;;;10.43;7.78;;;-0.80;99.90;;;;;;4976033;28;20202;-66
2022/12/12 10:02:52;;;;;;;3.97;3.90;;;-0.80;99.90;;;;;;4964839;28;20831;-65
2022/12/12 10:05:34;;;;;;;5.65;5.15;;;-0.80;99.90;;;;;;4963962;28;20234;-64
2022/12/12 10:08:11;;;;;;;4.00;3.70;;;-0.80;99.90;;;;;;4972369;28;20207;-65
2022/12/12 10:10:40;;;;;;;2.70;2.58;;;-0.70;99.90;;;;;;4962908;28;20231;-65
2022/12/12 10:13:15;;;;;;;4.47;3.60;;;-0.70;99.90;;;;;;4966705;28;20677;-66
2022/12/12 10:15:45;;;;;;;5.78;5.40;;;-0.80;99.90;;;;;;4973176;28;20194;-67
2022/12/12 10:18:15;;;;;;;5.40;4.68;;;-0.70;99.90;;;;;;4970703;28;20218;-66
2022/12/12 10:20:47;;;;;;;3.53;3.33;;;-0.70;99.90;;;;;;4976855;28;20238;-65
2022/12/12 10:23:22;;;;;;;6.45;4.97;;;-0.70;99.90;;;;;;4972936;28;20229;-64
2022/12/12 10:25:55;;;;;;;18.88;4.78;;;-0.70;99.90;;;;;;4972352;28;20224;-65
2022/12/12 10:28:24;;;;;;;3.67;3.30;;;-0.70;99.90;;;;;;4959825;28;20209;-66
2022/12/12 10:31:05;;;;;;;12.13;3.88;;;-0.60;99.90;;;;;;4974192;28;20698;-66
2022/12/12 10:33:41;;;;;;;4.03;3.92;;;-0.70;99.90;;;;;;4970401;28;20213;-66
2022/12/12 10:36:19;;;;;;;4.10;3.90;;;-0.60;99.90;;;;;;4972595;28;20214;-66
2022/12/12 10:39:03;;;;;;;3.33;3.33;;;-0.60;99.90;;;;;;4970219;28;20525;-66
2022/12/12 10:41:39;;;;;;;5.32;3.25;;;-0.60;99.90;;;;;;4962296;28;20246;-65
2022/12/12 10:44:15;;;;;;;10.20;6.50;;;-0.60;99.90;;;;;;4969940;28;20721;-66
2022/12/12 10:46:48;;;;;;;8.32;7.20;;;-0.60;99.90;;;;;;4973007;28;20223;-67
2022/12/12 10:49:17;;;;;;;7.45;4.45;;;-0.60;99.90;;;;;;4973316;28;20215;-65
2022/12/12 10:51:47;;;;;;;6.47;3.42;;;-0.50;99.90;;;;;;4973799;28;20239;-66
2022/12/12 10:54:18;;;;;;;7.78;7.10;;;-0.50;99.90;;;;;;4972528;28;20207;-66
2022/12/12 10:57:06;;;;;;;6.72;5.50;;;-0.50;99.90;;;;;;4978750;28;20202;-66
2022/12/12 10:59:39;;;;;;;3.58;3.58;;;-0.40;99.90;;;;;;4964950;28;20207;-66
2022/12/12 11:02:22;;;;;;;4.85;4.47;;;-0.40;99.90;;;;;;4972250;28;20240;-67
2022/12/12 11:04:57;;;;;;;4.90;4.60;;;-0.30;99.90;;;;;;4969239;28;20226;-67
2022/12/12 11:07:23;;;;;;;5.10;3.67;;;-0.30;99.90;;;;;;4965062;28;20641;-67
2022/12/12 11:09:52;;;;;;;7.72;6.57;;;-0.20;99.90;;;;;;4971917;28;20291;-66
2022/12/12 11:12:19;;;;;;;15.43;6.43;;;-0.20;99.90;;;;;;4971979;28;20330;-65
2022/12/12 11:14:48;;;;;;;4.95;4.65;;;-0.20;99.90;;;;;;4968718;28;20286;-67
2022/12/12 11:17:21;;;;;;;10.00;6.10;;;-0.20;99.90;;;;;;4972510;28;20266;-66
2022/12/12 11:19:48;;;;;;;2.90;2.80;;;-0.20;99.90;;;;;;5002020;23;20237;-68
2022/12/12 11:22:15;;;;;;;9.15;8.55;;;-0.20;99.90;;;;;;4981643;28;20599;-68
2022/12/12 11:24:45;;;;;;;13.55;6.53;;;-0.20;99.90;;;;;;4976888;28;20305;-68
2022/12/12 11:27:20;;;;;;;9.52;5.45;;;-0.10;99.90;;;;;;4983284;28;20270;-67
2022/12/12 11:29:49;;;;;;;12.43;7.10;;;-0.10;99.90;;;;;;4975241;28;20226;-67
2022/12/12 11:32:18;;;;;;;6.40;5.75;;;-0.20;99.90;;;;;;4960412;28;20218;-66
2022/12/12 11:34:48;;;;;;;6.72;6.28;;;-0.10;99.90;;;;;;4959825;28;20211;-66
2022/12/12 11:37:17;;;;;;;8.20;5.07;;;-0.10;99.90;;;;;;4964864;28;20704;-67
2022/12/12 11:39:46;;;;;;;7.65;7.15;;;-0.10;99.90;;;;;;4967149;28;20222;-68
2022/12/12 11:42:24;;;;;;;2.65;2.45;;;-0.10;99.90;;;;;;4957911;28;20210;-66
2022/12/12 11:45:00;;;;;;;9.23;5.72;;;0.00;99.90;;;;;;4960291;28;20231;-68
2022/12/12 11:47:28;;;;;;;4.70;4.35;;;0.00;99.90;;;;;;4959111;28;20211;-66
2022/12/12 11:49:56;;;;;;;8.55;6.32;;;0.00;99.90;;;;;;4960755;28;20222;-67
2022/12/12 11:52:26;;;;;;;7.63;7.30;;;0.00;99.90;;;;;;4962490;28;20861;-67
2022/12/12 11:54:54;;;;;;;8.75;4.30;;;0.10;99.90;;;;;;4961486;28;20208;-68
2022/12/12 11:57:44;;;;;;;6.53;6.03;;;0.10;99.90;;;;;;4963137;28;20876;-68
2022/12/12 12:00:15;;;;;;;8.77;4.47;;;0.10;99.90;;;;;;4960419;28;20338;-70
2022/12/12 12:03:05;;;;;;;5.47;4.93;;;0.10;99.90;;;;;;4965988;28;20232;-67
2022/12/12 12:05:41;;;;;;;7.60;6.63;;;0.10;99.90;;;;;;4964715;28;20227;-68
2022/12/12 12:08:23;;;;;;;4.88;4.47;;;0.20;99.90;;;;;;4965175;28;20215;-68
2022/12/12 12:11:02;;;;;;;9.40;7.25;;;0.20;99.90;;;;;;4958771;28;20230;-67
2022/12/12 12:13:47;;;;;;;7.00;6.30;;;0.20;99.90;;;;;;4970810;28;20210;-66
2022/12/12 12:16:21;;;;;;;10.13;6.68;;;0.30;99.90;;;;;;4966562;28;20214;-72
2022/12/12 12:19:00;;;;;;;7.53;6.93;;;0.30;99.90;;;;;;4964728;28;20237;-68
2022/12/12 12:21:31;;;;;;;8.57;3.55;;;0.30;99.90;;;;;;4959720;28;20547;-66
2022/12/12 12:24:11;;;;;;;4.53;4.18;;;0.30;99.90;;;;;;4960444;28;20250;-69
2022/12/12 12:26:46;;;;;;;4.97;4.78;;;0.30;99.90;;;;;;4961378;28;20195;-67
2022/12/12 12:29:34;;;;;;;6.22;5.35;;;0.30;99.90;;;;;;4970751;28;20227;-66
2022/12/12 12:32:10;;;;;;;9.73;4.75;;;0.30;99.90;;;;;;4960051;28;20302;-67
2022/12/12 12:34:47;;;;;;;4.57;4.28;;;0.30;99.90;;;;;;4961832;28;20217;-66
2022/12/12 12:37:26;;;;;;;8.13;7.47;;;0.30;99.90;;;;;;4961899;28;20207;-66
2022/12/12 12:40:04;;;;;;;5.10;4.60;;;0.30;99.90;;;;;;4964477;28;20224;-66
2022/12/12 12:42:53;;;;;;;12.35;3.88;;;0.40;99.90;;;;;;4966092;28;20237;-66
2022/12/12 12:45:31;;;;;;;7.50;2.65;;;0.40;99.90;;;;;;4963622;28;20721;-67
2022/12/12 12:48:03;;;;;;;4.57;4.28;;;0.40;99.90;;;;;;4964842;28;20219;-67
2022/12/12 12:50:34;;;;;;;8.80;5.38;;;0.40;99.90;;;;;;4967120;28;20234;-68
2022/12/12 12:53:07;;;;;;;4.07;3.88;;;0.40;99.90;;;;;;4967336;28;20235;-68
2022/12/12 12:55:40;;;;;;;5.72;2.90;;;0.40;99.90;;;;;;4961499;28;20639;-67
2022/12/12 12:58:18;;;;;;;6.55;5.95;;;0.40;99.90;;;;;;4960782;28;20541;-68
2022/12/12 13:00:58;;;;;;;7.50;6.45;;;0.40;99.90;;;;;;4953182;29;20232;-67
2022/12/12 13:03:31;;;;;;;6.50;6.03;;;0.40;99.90;;;;;;4957372;28;20203;-68
2022/12/12 13:06:01;;;;;;;4.05;3.80;;;0.40;99.90;;;;;;4964184;28;20228;-66
2022/12/12 13:08:38;;;;;;;5.05;4.63;;;0.40;99.90;;;;;;4959384;28;20657;-67
2022/12/12 13:11:10;;;;;;;7.47;6.20;;;0.40;99.90;;;;;;4971773;28;20206;-68
2022/12/12 13:13:40;;;;;;;6.72;5.57;;;0.50;99.90;;;;;;4969466;28;20210;-69
2022/12/12 13:16:13;;;;;;;8.82;8.02;;;0.40;99.90;;;;;;4965823;28;20578;-67
2022/12/12 13:18:42;;;;;;;5.93;5.60;;;0.40;99.90;;;;;;4975030;28;20210;-67
2022/12/12 13:21:16;;;;;;;5.05;4.75;;;0.30;99.90;;;;;;4958084;28;20230;-68
2022/12/12 13:23:54;;;;;;;3.83;3.72;;;0.40;99.90;;;;;;4965417;28;20251;-68
2022/12/12 13:26:25;;;;;;;9.63;5.68;;;0.40;99.90;;;;;;4958378;28;20230;-69
2022/12/12 13:28:57;;;;;;;2.85;2.70;;;0.40;99.90;;;;;;4969615;28;20598;-67
2022/12/12 13:31:54;;;;;;;5.78;5.43;;;0.40;99.90;;;;;;4960870;28;20218;-68
2022/12/12 13:34:25;;;;;;;3.15;2.92;;;0.40;99.90;;;;;;4969589;28;20304;-69
2022/12/12 13:36:53;;;;;;;6.28;5.65;;;0.30;99.90;;;;;;4960743;28;20215;-68
2022/12/12 13:39:27;;;;;;;3.22;3.05;;;0.30;99.90;;;;;;4965691;28;20706;-68
2022/12/12 13:42:00;;;;;;;4.28;3.97;;;0.30;99.90;;;;;;4964849;28;20592;-68
2022/12/12 13:44:36;;;;;;;4.88;4.47;;;0.30;99.90;;;;;;4968653;28;20215;-68
2022/12/12 13:47:10;;;;;;;6.13;5.40;;;0.30;99.90;;;;;;4966932;28;20240;-69
2022/12/12 13:49:49;;;;;;;5.93;4.75;;;0.20;99.90;;;;;;4967547;28;20228;-68
2022/12/12 13:52:27;;;;;;;4.50;4.10;;;0.20;99.90;;;;;;4963657;28;20215;-69
2022/12/12 13:55:17;;;;;;;3.42;3.30;;;0.20;99.90;;;;;;4966826;28;20298;-68
2022/12/12 13:58:08;;;;;;;7.00;4.53;;;0.20;99.90;;;;;;4967523;28;20598;-69
2022/12/12 14:00:36;;;;;;;4.78;2.90;;;0.20;99.90;;;;;;4971083;28;20226;-69
2022/12/12 14:03:23;;;;;;;3.95;3.67;;;0.10;99.90;;;;;;4969958;28;20625;-69
2022/12/12 14:05:52;;;;;;;14.93;5.50;;;0.10;99.90;;;;;;4969204;28;20712;-67
2022/12/12 14:08:26;;;;;;;10.85;3.35;;;0.10;99.90;;;;;;4968709;28;20204;-69
2022/12/12 14:11:00;;;;;;;7.45;5.47;;;0.10;99.90;;;;;;4967972;28;20211;-67
2022/12/12 14:13:44;;;;;;;6.57;5.35;;;0.10;99.90;;;;;;4967404;28;20208;-68
2022/12/12 14:16:25;;;;;;;3.50;3.40;;;0.00;99.90;;;;;;4971509;28;20944;-67
2022/12/12 14:19:03;;;;;;;5.68;4.47;;;0.00;99.90;;;;;;4962716;28;20234;-68
2022/12/12 14:21:40;;;;;;;10.68;8.23;;;0.00;99.90;;;;;;4968803;28;20206;-69
2022/12/12 14:24:45;;;;;;;4.78;2.72;;;-0.10;99.90;;;;;;4972377;28;20220;-69
2022/12/12 14:27:12;;;;;;;27.60;6.10;;;-0.10;99.90;;;;;;4978142;28;20369;-70
2022/12/12 14:29:42;;;;;;;16.65;4.63;;;-0.20;99.90;;;;;;4981978;28;20619;-69
2022/12/12 14:32:33;;;;;;;1.90;1.80;;;-0.20;99.90;;;;;;4965355;28;20210;-69
2022/12/12 14:35:17;;;;;;;4.15;3.92;;;-0.20;99.90;;;;;;4971322;28;20210;-68
2022/12/12 14:37:56;;;;;;;5.55;5.35;;;-0.30;99.90;;;;;;4986071;28;20280;-68
2022/12/12 14:40:26;;;;;;;4.95;2.65;;;-0.30;99.90;;;;;;4992616;28;20244;-69
2022/12/12 14:42:58;;;;;;;7.93;5.70;;;-0.40;99.90;;;;;;4981376;28;20211;-69
2022/12/12 14:45:28;;;;;;;7.70;6.97;;;-0.40;99.90;;;;;;4980423;28;20209;-68
2022/12/12 14:48:18;;;;;;;4.97;4.22;;;-0.50;99.90;;;;;;4980037;28;20263;-68
2022/12/12 14:50:49;;;;;;;7.10;6.20;;;-0.60;99.90;;;;;;4971991;28;20230;-69
2022/12/12 14:53:19;;;;;;;4.30;3.88;;;-0.60;99.90;;;;;;4976520;28;20269;-68
2022/12/12 14:55:52;;;;;;;6.35;4.57;;;-0.70;99.90;;;;;;4974822;28;20207;-69
2022/12/12 14:58:21;;;;;;;7.30;5.55;;;-0.70;99.90;;;;;;4972600;28;20321;-69
2022/12/12 15:00:51;;;;;;;7.90;4.25;;;-0.80;99.90;;;;;;4971717;28;20217;-69
2022/12/12 15:03:23;;;;;;;3.25;3.05;;;-0.80;99.90;;;;;;4962620;28;20224;-67
2022/12/12 15:06:26;;;;;;;2.83;2.47;;;-0.90;99.90;;;;;;4962034;28;20243;-68
2022/12/12 15:08:54;;;;;;;5.10;3.75;;;-0.90;99.90;;;;;;4975115;28;20252;-69
2022/12/12 15:11:22;;;;;;;8.52;5.50;;;-1.00;99.90;;;;;;4973810;28;20650;-68
2022/12/12 15:13:51;;;;;;;12.57;5.93;;;-1.00;99.90;;;;;;4964844;28;20274;-69
2022/12/12 15:16:18;;;;;;;6.43;5.97;;;-1.10;99.90;;;;;;4972921;28;20225;-68
2022/12/12 15:18:45;;;;;;;4.30;3.97;;;-1.10;99.90;;;;;;4975135;28;20210;-68
2022/12/12 15:21:14;;;;;;;8.27;6.30;;;-1.20;99.90;;;;;;4967794;28;20550;-68
2022/12/12 15:23:41;;;;;;;4.13;3.85;;;-1.20;99.90;;;;;;4963361;28;20348;-67
2022/12/12 15:26:17;;;;;;;8.77;5.18;;;-1.20;99.90;;;;;;4967727;28;20320;-68
2022/12/12 15:28:44;;;;;;;7.78;4.15;;;-1.30;99.90;;;;;;4962429;28;20610;-69
2022/12/12 15:31:14;;;;;;;24.02;5.63;;;-1.30;99.90;;;;;;4967337;28;20227;-69
2022/12/12 15:33:41;;;;;;;7.72;7.25;;;-1.30;99.90;;;;;;4968250;28;20218;-69
2022/12/12 15:36:19;;;;;;;4.70;3.50;;;-1.30;99.90;;;;;;4968722;28;20258;-68
2022/12/12 15:39:03;;;;;;;8.35;7.43;;;-1.40;99.90;;;;;;4968272;28;20304;-69
2022/12/12 15:41:32;;;;;;;8.07;5.88;;;-1.40;99.90;;;;;;4958343;28;20207;-69
2022/12/12 15:43:59;;;;;;;8.75;4.90;;;-1.50;99.90;;;;;;4962372;28;20257;-68
2022/12/12 15:46:27;;;;;;;2.92;2.63;;;-1.50;99.90;;;;;;4963787;28;20269;-69
2022/12/12 15:48:54;;;;;;;6.05;5.55;;;-1.50;99.90;;;;;;4966230;28;20623;-69
2022/12/12 15:51:29;;;;;;;9.77;7.55;;;-1.50;99.90;;;;;;4970631;28;20588;-69
2022/12/12 15:53:56;;;;;;;7.57;6.10;;;-1.50;99.90;;;;;;4974507;28;20205;-70
2022/12/12 15:56:24;;;;;;;5.10;4.82;;;-1.60;99.90;;;;;;4964131;28;20203;-67
2022/12/12 15:58:53;;;;;;;4.03;3.83;;;-1.60;99.90;;;;;;4965344;28;20244;-67
2022/12/12 16:01:24;;;;;;;3.17;3.08;;;-1.60;99.90;;;;;;4969408;28;20202;-69
2022/12/12 16:03:56;;;;;;;8.93;8.25;;;-1.60;99.90;;;;;;4965050;28;20236;-68
2022/12/12 16:06:26;;;;;;;7.57;4.30;;;-1.60;99.90;;;;;;4965211;28;20225;-70
2022/12/12 16:09:00;;;;;;;4.50;4.25;;;-1.60;99.90;;;;;;4960846;28;20573;-68
2022/12/12 16:11:42;;;;;;;3.17;3.08;;;-1.70;99.90;;;;;;4963207;28;20265;-69
2022/12/12 16:14:32;;;;;;;12.07;5.32;;;-1.70;99.90;;;;;;4964179;28;20220;-69
2022/12/12 16:17:02;;;;;;;5.50;5.20;;;-1.70;99.90;;;;;;4961684;28;20210;-71
2022/12/12 16:19:45;;;;;;;4.38;3.97;;;-1.80;99.90;;;;;;4957556;28;20269;-70
2022/12/12 16:22:32;;;;;;;6.13;5.55;;;-1.80;99.90;;;;;;4968280;28;20281;-68
2022/12/12 16:25:12;;;;;;;4.68;4.45;;;-1.80;99.90;;;;;;4968549;28;20218;-69
2022/12/12 16:27:39;;;;;;;7.05;6.47;;;-1.90;99.90;;;;;;4964420;28;20221;-69
2022/12/12 16:30:06;;;;;;;12.95;5.22;;;-1.90;99.90;;;;;;4962295;28;20237;-69
2022/12/12 16:32:33;;;;;;;12.23;3.80;;;-1.90;99.90;;;;;;4969688;28;20206;-70
2022/12/12 16:35:00;;;;;;;4.70;4.40;;;-2.00;99.90;;;;;;4970027;28;20228;-68
2022/12/12 16:37:28;;;;;;;4.70;4.45;;;-2.00;99.90;;;;;;4968753;28;20228;-69
2022/12/12 16:39:55;;;;;;;10.45;5.45;;;-2.00;99.90;;;;;;4968192;28;20224;-69
2022/12/12 16:42:22;;;;;;;6.50;5.68;;;-2.10;99.90;;;;;;4959197;28;20212;-68
2022/12/12 16:44:49;;;;;;;10.07;7.50;;;-2.10;99.90;;;;;;4957920;28;20222;-68
2022/12/12 16:47:18;;;;;;;7.85;7.05;;;-2.00;99.90;;;;;;4967007;28;20298;-69
2022/12/12 16:49:45;;;;;;;8.38;6.75;;;-2.10;99.90;;;;;;4963559;28;20226;-68
2022/12/12 16:52:12;;;;;;;7.53;6.85;;;-2.10;99.90;;;;;;4958654;28;20228;-69
2022/12/12 16:54:40;;;;;;;8.68;7.38;;;-2.10;99.90;;;;;;4965796;28;20236;-70
2022/12/12 16:57:07;;;;;;;11.80;8.10;;;-2.10;99.90;;;;;;4958874;28;20217;-68
2022/12/12 16:59:34;;;;;;;5.32;4.97;;;-2.20;99.90;;;;;;4962482;28;20253;-69
2022/12/12 17:02:01;;;;;;;22.17;7.30;;;-2.20;99.90;;;;;;4966940;28;20205;-68
2022/12/12 17:04:28;;;;;;;11.32;5.88;;;-2.20;99.90;;;;;;4965545;28;20732;-70
2022/12/12 17:06:56;;;;;;;6.38;5.97;;;-2.20;99.90;;;;;;4962601;28;20594;-68
2022/12/12 17:09:23;;;;;;;13.93;5.28;;;-2.30;99.90;;;;;;4961090;28;20249;-70
2022/12/12 17:11:51;;;;;;;8.55;7.82;;;-2.30;99.90;;;;;;4964316;28;20610;-69
2022/12/12 17:14:21;;;;;;;4.85;4.47;;;-2.30;99.90;;;;;;4970531;28;20256;-69
2022/12/12 17:16:48;;;;;;;6.57;5.93;;;-2.40;99.90;;;;;;4959226;28;20213;-68
2022/12/12 17:19:14;;;;;;;4.55;4.07;;;-2.40;99.90;;;;;;4962482;28;20311;-68
2022/12/12 17:21:41;;;;;;;13.35;7.53;;;-2.40;99.90;;;;;;4964079;28;20280;-67
2022/12/12 17:24:08;;;;;;;6.88;5.00;;;-2.40;99.90;;;;;;4959626;28;20209;-68
2022/12/12 17:26:36;;;;;;;4.35;3.97;;;-2.40;99.90;;;;;;4963679;28;20588;-70
2022/12/12 17:29:05;;;;;;;5.63;5.25;;;-2.40;99.90;;;;;;4968681;28;20319;-69
2022/12/12 17:31:32;;;;;;;5.93;5.13;;;-2.40;99.90;;;;;;4974040;28;20644;-68
2022/12/12 17:34:01;;;;;;;6.78;6.22;;;-2.40;99.90;;;;;;4967404;28;20241;-69
2022/12/12 17:36:27;;;;;;;31.33;9.90;;;-2.40;99.90;;;;;;4964014;28;20634;-70
2022/12/12 17:38:54;;;;;;;6.47;6.18;;;-2.40;99.90;;;;;;4967300;28;20230;-68
2022/12/12 17:41:21;;;;;;;3.17;2.35;;;-2.40;99.90;;;;;;4961642;28;20214;-69
2022/12/12 17:43:47;;;;;;;3.83;3.83;;;-2.40;99.90;;;;;;4961612;28;20256;-70
2022/12/12 17:46:17;;;;;;;4.80;4.55;;;-2.40;99.90;;;;;;4965069;28;20636;-67
2022/12/12 17:48:47;;;;;;;11.75;7.93;;;-2.40;99.90;;;;;;4968366;28;20204;-69
2022/12/12 17:51:16;;;;;;;8.00;4.63;;;-2.50;99.90;;;;;;4966371;28;20260;-70
2022/12/12 17:53:42;;;;;;;5.70;5.60;;;-2.50;99.90;;;;;;4960939;28;20670;-68
2022/12/12 17:56:12;;;;;;;7.57;6.68;;;-2.50;99.90;;;;;;4967066;28;20218;-69
2022/12/12 17:58:42;;;;;;;9.00;8.48;;;-2.50;99.90;;;;;;4963763;28;20633;-69
2022/12/12 18:01:10;;;;;;;4.60;4.25;;;-2.50;99.90;;;;;;4964382;28;20237;-69
2022/12/12 18:03:38;;;;;;;3.88;3.67;;;-2.50;99.90;;;;;;4971616;28;20903;-69
2022/12/12 18:06:05;;;;;;;5.57;5.18;;;-2.60;99.90;;;;;;4964944;28;20232;-69
2022/12/12 18:08:32;;;;;;;5.22;4.80;;;-2.60;99.90;;;;;;4975187;28;20201;-71